sensor_id;sensor_type;location;lat;lon;timestamp;pressure;altitude;pressure_sealevel;temperature;humidity
71109;BME280;59614;51.012;-1.648;2023-07-20T00:02:14;100847.19;;;16.98;76.97
71109;BME280;59614;51.012;-1.648;2023-07-20T00:04:39;100847.72;;;17.08;76.93
71109;BME280;59614;51.012;-1.648;2023-07-20T00:07:05;100836.63;;;16.95;77.22
71109;BME280;59614;51.012;-1.648;2023-07-20T00:09:30;100845.44;;;16.97;76.98
71109;BME280;59614;51.012;-1.648;2023-07-20T00:11:56;100839.94;;;16.76;77.28
71109;BME280;59614;51.012;-1.648;2023-07-20T00:14:21;100837.50;;;16.95;77.11
71109;BME280;59614;51.012;-1.648;2023-07-20T00:16:49;100838.03;;;16.80;77.08
71109;BME280;59614;51.012;-1.648;2023-07-20T00:19:21;100831.94;;;16.76;77.34
71109;BME280;59614;51.012;-1.648;2023-07-20T00:21:47;100836.13;;;16.83;77.74
71109;BME280;59614;51.012;-1.648;2023-07-20T00:24:12;100835.09;;;16.88;77.19
71109;BME280;59614;51.012;-1.648;2023-07-20T00:26:37;100828.94;;;16.86;77.27
71109;BME280;59614;51.012;-1.648;2023-07-20T00:29:03;100837.03;;;16.82;77.56
71109;BME280;59614;51.012;-1.648;2023-07-20T00:31:29;100826.63;;;16.76;77.17
71109;BME280;59614;51.012;-1.648;2023-07-20T00:33:54;100826.81;;;16.70;77.39
71109;BME280;59614;51.012;-1.648;2023-07-20T00:36:20;100830.53;;;16.66;77.69
71109;BME280;59614;51.012;-1.648;2023-07-20T00:38:45;100827.03;;;16.64;77.56
71109;BME280;59614;51.012;-1.648;2023-07-20T00:41:12;100829.88;;;16.59;77.73
71109;BME280;59614;51.012;-1.648;2023-07-20T00:43:38;100827.25;;;16.58;77.76
71109;BME280;59614;51.012;-1.648;2023-07-20T00:46:04;100831.72;;;16.57;77.27
71109;BME280;59614;51.012;-1.648;2023-07-20T00:48:31;100836.16;;;16.57;77.46
71109;BME280;59614;51.012;-1.648;2023-07-20T00:50:58;100838.13;;;16.51;77.27
71109;BME280;59614;51.012;-1.648;2023-07-20T00:53:24;100842.88;;;16.43;77.60
71109;BME280;59614;51.012;-1.648;2023-07-20T00:55:49;100843.94;;;16.38;77.91
71109;BME280;59614;51.012;-1.648;2023-07-20T00:58:15;100834.66;;;16.49;77.67
71109;BME280;59614;51.012;-1.648;2023-07-20T01:00:40;100841.81;;;16.47;76.75
71109;BME280;59614;51.012;-1.648;2023-07-20T01:03:06;100835.94;;;16.38;77.67
71109;BME280;59614;51.012;-1.648;2023-07-20T01:05:40;100833.38;;;16.34;77.24
71109;BME280;59614;51.012;-1.648;2023-07-20T01:08:12;100825.72;;;16.25;77.74
71109;BME280;59614;51.012;-1.648;2023-07-20T01:10:48;100819.91;;;16.12;78.15
71109;BME280;59614;51.012;-1.648;2023-07-20T01:13:17;100815.91;;;16.26;77.09
71109;BME280;59614;51.012;-1.648;2023-07-20T01:15:49;100820.91;;;16.35;76.37
71109;BME280;59614;51.012;-1.648;2023-07-20T01:18:14;100818.00;;;16.43;76.19
71109;BME280;59614;51.012;-1.648;2023-07-20T01:20:39;100822.72;;;16.08;77.36
71109;BME280;59614;51.012;-1.648;2023-07-20T01:28:35;100813.44;;;15.93;78.35
71109;BME280;59614;51.012;-1.648;2023-07-20T01:31:24;100823.41;;;15.87;77.69
71109;BME280;59614;51.012;-1.648;2023-07-20T01:33:53;100827.00;;;15.85;78.76
71109;BME280;59614;51.012;-1.648;2023-07-20T01:36:19;100820.06;;;15.79;78.07
71109;BME280;59614;51.012;-1.648;2023-07-20T01:38:47;100816.53;;;15.79;78.17
71109;BME280;59614;51.012;-1.648;2023-07-20T01:41:13;100812.44;;;15.67;78.80
71109;BME280;59614;51.012;-1.648;2023-07-20T01:43:39;100817.25;;;15.55;78.34
71109;BME280;59614;51.012;-1.648;2023-07-20T01:46:05;100820.44;;;15.67;77.96
71109;BME280;59614;51.012;-1.648;2023-07-20T01:48:31;100809.91;;;15.64;78.44
71109;BME280;59614;51.012;-1.648;2023-07-20T01:50:56;100808.47;;;15.82;77.74
71109;BME280;59614;51.012;-1.648;2023-07-20T01:53:22;100812.44;;;15.67;77.73
71109;BME280;59614;51.012;-1.648;2023-07-20T01:55:47;100810.97;;;15.58;78.09
71109;BME280;59614;51.012;-1.648;2023-07-20T01:58:13;100812.44;;;15.67;77.83
71109;BME280;59614;51.012;-1.648;2023-07-20T02:00:38;100812.44;;;15.67;78.12
71109;BME280;59614;51.012;-1.648;2023-07-20T02:03:04;100806.72;;;15.52;78.20
71109;BME280;59614;51.012;-1.648;2023-07-20T02:05:29;100811.22;;;15.50;78.64
71109;BME280;59614;51.012;-1.648;2023-07-20T02:07:55;100810.81;;;15.63;78.11
71109;BME280;59614;51.012;-1.648;2023-07-20T02:10:20;100809.25;;;15.55;78.71
71109;BME280;59614;51.012;-1.648;2023-07-20T02:12:46;100806.44;;;15.60;78.71
71109;BME280;59614;51.012;-1.648;2023-07-20T02:15:12;100803.00;;;15.58;78.59
71109;BME280;59614;51.012;-1.648;2023-07-20T02:17:39;100804.06;;;15.52;78.25
71109;BME280;59614;51.012;-1.648;2023-07-20T02:20:07;100805.69;;;15.56;78.21
71109;BME280;59614;51.012;-1.648;2023-07-20T02:22:34;100801.28;;;15.55;78.57
71109;BME280;59614;51.012;-1.648;2023-07-20T02:24:59;100803.22;;;15.50;78.36
71109;BME280;59614;51.012;-1.648;2023-07-20T02:27:25;100801.25;;;15.57;78.55
71109;BME280;59614;51.012;-1.648;2023-07-20T02:29:50;100795.03;;;15.56;78.79
71109;BME280;59614;51.012;-1.648;2023-07-20T02:32:16;100800.34;;;15.56;78.34
71109;BME280;59614;51.012;-1.648;2023-07-20T02:34:41;100803.25;;;15.49;78.97
71109;BME280;59614;51.012;-1.648;2023-07-20T02:37:07;100799.94;;;15.42;79.01
71109;BME280;59614;51.012;-1.648;2023-07-20T02:39:32;100801.84;;;15.37;78.81
71109;BME280;59614;51.012;-1.648;2023-07-20T02:41:57;100802.84;;;15.33;79.28
71109;BME280;59614;51.012;-1.648;2023-07-20T02:44:23;100810.28;;;15.21;79.44
71109;BME280;59614;51.012;-1.648;2023-07-20T02:46:49;100806.91;;;15.16;79.83
71109;BME280;59614;51.012;-1.648;2023-07-20T02:49:17;100799.91;;;15.13;79.78
71109;BME280;59614;51.012;-1.648;2023-07-20T02:51:42;100799.19;;;15.07;79.41
71109;BME280;59614;51.012;-1.648;2023-07-20T02:54:08;100794.03;;;15.01;79.58
71109;BME280;59614;51.012;-1.648;2023-07-20T02:56:33;100795.22;;;14.90;79.33
71109;BME280;59614;51.012;-1.648;2023-07-20T02:59:01;100797.25;;;14.82;79.44
71109;BME280;59614;51.012;-1.648;2023-07-20T03:01:26;100807.09;;;14.78;80.35
71109;BME280;59614;51.012;-1.648;2023-07-20T03:03:54;100811.50;;;14.78;79.82
71109;BME280;59614;51.012;-1.648;2023-07-20T03:06:20;100810.78;;;14.73;80.22
71109;BME280;59614;51.012;-1.648;2023-07-20T03:08:45;100810.44;;;14.52;80.77
71109;BME280;59614;51.012;-1.648;2023-07-20T03:11:13;100802.16;;;14.63;80.74
71109;BME280;59614;51.012;-1.648;2023-07-20T03:13:40;100806.69;;;14.59;79.87
71109;BME280;59614;51.012;-1.648;2023-07-20T03:16:06;100804.19;;;14.53;80.48
71109;BME280;59614;51.012;-1.648;2023-07-20T03:18:37;100807.00;;;14.47;80.31
71109;BME280;59614;51.012;-1.648;2023-07-20T03:21:02;100810.88;;;14.33;80.45
71109;BME280;59614;51.012;-1.648;2023-07-20T03:23:28;100806.28;;;14.40;80.98
71109;BME280;59614;51.012;-1.648;2023-07-20T03:25:53;100806.16;;;14.46;80.16
71109;BME280;59614;51.012;-1.648;2023-07-20T03:28:20;100810.50;;;14.49;80.06
71109;BME280;59614;51.012;-1.648;2023-07-20T03:30:45;100805.25;;;14.46;80.50
71109;BME280;59614;51.012;-1.648;2023-07-20T03:33:11;100805.25;;;14.46;80.34
71109;BME280;59614;51.012;-1.648;2023-07-20T03:35:37;100809.66;;;14.47;80.42
71109;BME280;59614;51.012;-1.648;2023-07-20T03:38:02;100810.50;;;14.49;80.57
71109;BME280;59614;51.012;-1.648;2023-07-20T03:40:29;100813.88;;;14.54;80.08
71109;BME280;59614;51.012;-1.648;2023-07-20T03:42:55;100810.31;;;14.55;79.78
71109;BME280;59614;51.012;-1.648;2023-07-20T03:45:20;100809.47;;;14.55;79.86
71109;BME280;59614;51.012;-1.648;2023-07-20T03:47:49;100804.09;;;14.56;79.33
71109;BME280;59614;51.012;-1.648;2023-07-20T03:50:14;100797.16;;;14.52;79.20
71109;BME280;59614;51.012;-1.648;2023-07-20T03:52:40;100796.06;;;14.59;79.38
71109;BME280;59614;51.012;-1.648;2023-07-20T03:55:06;100800.47;;;14.59;79.23
71109;BME280;59614;51.012;-1.648;2023-07-20T03:57:31;100803.88;;;14.31;79.49
71109;BME280;59614;51.012;-1.648;2023-07-20T03:59:59;100801.53;;;14.53;79.54
71109;BME280;59614;51.012;-1.648;2023-07-20T04:02:24;100805.78;;;14.60;78.99
71109;BME280;59614;51.012;-1.648;2023-07-20T04:04:50;100799.63;;;14.58;78.65
71109;BME280;59614;51.012;-1.648;2023-07-20T04:07:16;100805.00;;;14.57;78.78
71109;BME280;59614;51.012;-1.648;2023-07-20T04:09:41;100811.28;;;14.52;79.03
71109;BME280;59614;51.012;-1.648;2023-07-20T04:12:07;100803.53;;;14.45;79.42
71109;BME280;59614;51.012;-1.648;2023-07-20T04:14:32;100800.84;;;14.45;79.06
71109;BME280;59614;51.012;-1.648;2023-07-20T04:16:58;100812.56;;;14.38;78.89
71109;BME280;59614;51.012;-1.648;2023-07-20T04:19:25;100798.19;;;14.45;78.49
71109;BME280;59614;51.012;-1.648;2023-07-20T04:21:51;100807.41;;;14.31;79.92
71109;BME280;59614;51.012;-1.648;2023-07-20T04:24:16;100798.66;;;14.28;79.88
71109;BME280;59614;51.012;-1.648;2023-07-20T04:26:41;100801.34;;;14.26;79.31
71109;BME280;59614;51.012;-1.648;2023-07-20T04:29:07;100803.81;;;13.98;79.47
71109;BME280;59614;51.012;-1.648;2023-07-20T04:31:33;100800.16;;;14.03;80.68
71109;BME280;59614;51.012;-1.648;2023-07-20T04:33:59;100802.56;;;14.13;80.29
71109;BME280;59614;51.012;-1.648;2023-07-20T04:36:24;100806.09;;;14.13;80.09
71109;BME280;59614;51.012;-1.648;2023-07-20T04:38:50;100801.78;;;14.09;80.84
71109;BME280;59614;51.012;-1.648;2023-07-20T04:41:15;100798.88;;;14.18;80.45
71109;BME280;59614;51.012;-1.648;2023-07-20T04:43:44;100802.03;;;14.34;79.47
71109;BME280;59614;51.012;-1.648;2023-07-20T04:46:13;100792.91;;;14.45;79.29
71109;BME280;59614;51.012;-1.648;2023-07-20T04:48:38;100790.31;;;14.42;78.79
71109;BME280;59614;51.012;-1.648;2023-07-20T04:51:05;100787.44;;;14.51;78.25
71109;BME280;59614;51.012;-1.648;2023-07-20T04:53:31;100793.69;;;14.48;78.73
71109;BME280;59614;51.012;-1.648;2023-07-20T04:55:56;100785.59;;;14.53;78.86
71109;BME280;59614;51.012;-1.648;2023-07-20T04:58:22;100789.25;;;14.49;78.51
71109;BME280;59614;51.012;-1.648;2023-07-20T05:00:48;100794.91;;;14.70;78.26
71109;BME280;59614;51.012;-1.648;2023-07-20T05:03:14;100802.47;;;14.85;77.66
71109;BME280;59614;51.012;-1.648;2023-07-20T05:05:39;100784.69;;;14.87;77.33
71109;BME280;59614;51.012;-1.648;2023-07-20T05:08:05;100790.81;;;14.89;77.17
71109;BME280;59614;51.012;-1.648;2023-07-20T05:10:31;100793.22;;;14.98;76.98
71109;BME280;59614;51.012;-1.648;2023-07-20T05:12:57;100792.22;;;15.03;76.38
71109;BME280;59614;51.012;-1.648;2023-07-20T05:15:23;100798.19;;;15.11;75.67
71109;BME280;59614;51.012;-1.648;2023-07-20T05:17:48;100802.72;;;15.07;74.03
71109;BME280;59614;51.012;-1.648;2023-07-20T05:20:14;100799.16;;;15.08;73.75
71109;BME280;59614;51.012;-1.648;2023-07-20T05:22:40;100792.09;;;15.07;73.70
71109;BME280;59614;51.012;-1.648;2023-07-20T05:25:08;100801.59;;;15.16;73.25
71109;BME280;59614;51.012;-1.648;2023-07-20T05:27:36;100803.47;;;15.12;72.73
71109;BME280;59614;51.012;-1.648;2023-07-20T05:30:01;100803.16;;;14.92;73.73
71109;BME280;59614;51.012;-1.648;2023-07-20T05:32:27;100793.22;;;14.98;73.82
71109;BME280;59614;51.012;-1.648;2023-07-20T05:34:54;100802.56;;;14.82;74.26
71109;BME280;59614;51.012;-1.648;2023-07-20T05:37:20;100807.38;;;14.67;74.94
71109;BME280;59614;51.012;-1.648;2023-07-20T05:39:45;100806.97;;;14.81;74.43
71109;BME280;59614;51.012;-1.648;2023-07-20T05:42:11;100798.88;;;15.18;74.07
71109;BME280;59614;51.012;-1.648;2023-07-20T05:44:36;100796.78;;;15.57;72.96
71109;BME280;59614;51.012;-1.648;2023-07-20T05:47:02;100796.31;;;15.73;73.69
71109;BME280;59614;51.012;-1.648;2023-07-20T05:49:28;100802.13;;;15.86;74.29
71109;BME280;59614;51.012;-1.648;2023-07-20T05:51:54;100795.94;;;15.85;73.09
71109;BME280;59614;51.012;-1.648;2023-07-20T05:54:21;100807.97;;;15.97;73.66
71109;BME280;59614;51.012;-1.648;2023-07-20T05:56:46;100803.56;;;15.96;74.06
71109;BME280;59614;51.012;-1.648;2023-07-20T05:59:12;100804.25;;;16.03;73.54
71109;BME280;59614;51.012;-1.648;2023-07-20T06:01:37;100797.06;;;16.05;73.55
71109;BME280;59614;51.012;-1.648;2023-07-20T06:04:03;100795.75;;;16.18;73.28
71109;BME280;59614;51.012;-1.648;2023-07-20T06:06:29;100789.38;;;16.23;72.53
71109;BME280;59614;51.012;-1.648;2023-07-20T06:08:54;100801.25;;;16.39;72.95
71109;BME280;59614;51.012;-1.648;2023-07-20T06:11:20;100799.50;;;16.38;71.76
71109;BME280;59614;51.012;-1.648;2023-07-20T06:13:45;100795.81;;;16.42;72.19
71109;BME280;59614;51.012;-1.648;2023-07-20T06:16:11;100793.50;;;16.58;71.96
71109;BME280;59614;51.012;-1.648;2023-07-20T06:18:36;100793.31;;;16.63;69.99
71109;BME280;59614;51.012;-1.648;2023-07-20T06:21:02;100790.50;;;16.67;69.50
71109;BME280;59614;51.012;-1.648;2023-07-20T06:23:27;100788.47;;;16.74;70.51
71109;BME280;59614;51.012;-1.648;2023-07-20T06:25:53;100798.75;;;16.34;68.96
71109;BME280;59614;51.012;-1.648;2023-07-20T06:28:18;100794.31;;;16.08;69.83
71109;BME280;59614;51.012;-1.648;2023-07-20T06:30:44;100788.84;;;16.38;70.14
71109;BME280;59614;51.012;-1.648;2023-07-20T06:33:09;100798.59;;;16.64;70.36
71109;BME280;59614;51.012;-1.648;2023-07-20T06:35:35;100799.31;;;16.70;69.18
71109;BME280;59614;51.012;-1.648;2023-07-20T06:38:01;100796.56;;;16.71;68.87
71109;BME280;59614;51.012;-1.648;2023-07-20T06:40:28;100796.09;;;16.60;69.56
71109;BME280;59614;51.012;-1.648;2023-07-20T06:42:53;100797.13;;;16.81;69.60
71109;BME280;59614;51.012;-1.648;2023-07-20T06:45:19;100791.88;;;17.03;69.45
71109;BME280;59614;51.012;-1.648;2023-07-20T06:47:44;100797.22;;;17.03;69.27
71109;BME280;59614;51.012;-1.648;2023-07-20T06:50:10;100797.22;;;17.03;68.25
71109;BME280;59614;51.012;-1.648;2023-07-20T06:52:36;100796.19;;;17.31;67.42
71109;BME280;59614;51.012;-1.648;2023-07-20T06:55:02;100798.13;;;17.26;67.70
71109;BME280;59614;51.012;-1.648;2023-07-20T06:57:27;100802.22;;;17.58;67.96
71109;BME280;59614;51.012;-1.648;2023-07-20T06:59:53;100795.53;;;17.24;67.13
71109;BME280;59614;51.012;-1.648;2023-07-20T07:02:19;100792.44;;;17.35;66.92
71109;BME280;59614;51.012;-1.648;2023-07-20T07:04:44;100795.56;;;17.91;65.94
71109;BME280;59614;51.012;-1.648;2023-07-20T07:07:13;100801.06;;;17.88;64.48
71109;BME280;59614;51.012;-1.648;2023-07-20T07:09:39;100798.66;;;18.25;63.82
71109;BME280;59614;51.012;-1.648;2023-07-20T07:12:05;100801.34;;;18.45;63.38
71109;BME280;59614;51.012;-1.648;2023-07-20T07:14:30;100800.53;;;18.64;62.49
71109;BME280;59614;51.012;-1.648;2023-07-20T07:16:56;100799.53;;;18.87;62.54
71109;BME280;59614;51.012;-1.648;2023-07-20T07:19:21;100788.81;;;19.27;63.50
71109;BME280;59614;51.012;-1.648;2023-07-20T07:21:46;100788.41;;;19.73;60.04
71109;BME280;59614;51.012;-1.648;2023-07-20T07:24:12;100789.94;;;19.59;58.12
71109;BME280;59614;51.012;-1.648;2023-07-20T07:26:37;100784.50;;;19.80;57.62
71109;BME280;59614;51.012;-1.648;2023-07-20T07:29:04;100790.97;;;20.30;59.79
71109;BME280;59614;51.012;-1.648;2023-07-20T07:31:30;100790.84;;;20.67;57.66
71109;BME280;59614;51.012;-1.648;2023-07-20T07:33:56;100782.41;;;21.08;57.33
71109;BME280;59614;51.012;-1.648;2023-07-20T07:36:22;100786.69;;;20.95;55.31
71109;BME280;59614;51.012;-1.648;2023-07-20T07:38:49;100780.84;;;21.04;54.87
71109;BME280;59614;51.012;-1.648;2023-07-20T07:41:15;100781.97;;;21.16;54.23
71109;BME280;59614;51.012;-1.648;2023-07-20T07:43:40;100779.03;;;21.05;53.92
71109;BME280;59614;51.012;-1.648;2023-07-20T07:46:06;100774.47;;;21.23;53.68
71109;BME280;59614;51.012;-1.648;2023-07-20T07:48:31;100775.13;;;21.10;53.51
71109;BME280;59614;51.012;-1.648;2023-07-20T07:50:56;100776.47;;;21.51;56.25
71109;BME280;59614;51.012;-1.648;2023-07-20T07:53:22;100776.72;;;21.31;54.31
71109;BME280;59614;51.012;-1.648;2023-07-20T07:55:48;100767.44;;;21.52;53.11
71109;BME280;59614;51.012;-1.648;2023-07-20T07:58:13;100777.75;;;21.92;53.70
71109;BME280;59614;51.012;-1.648;2023-07-20T08:00:39;100771.88;;;22.61;54.84
71109;BME280;59614;51.012;-1.648;2023-07-20T08:03:06;100776.69;;;22.56;54.44
71109;BME280;59614;51.012;-1.648;2023-07-20T08:05:32;100765.53;;;22.62;50.79
71109;BME280;59614;51.012;-1.648;2023-07-20T08:07:58;100766.59;;;22.59;52.40
71109;BME280;59614;51.012;-1.648;2023-07-20T08:10:23;100765.06;;;22.98;52.88
71109;BME280;59614;51.012;-1.648;2023-07-20T08:12:49;100762.06;;;23.18;52.10
71109;BME280;59614;51.012;-1.648;2023-07-20T08:15:14;100753.13;;;23.32;49.65
71109;BME280;59614;51.012;-1.648;2023-07-20T08:17:41;100768.34;;;22.60;49.92
71109;BME280;59614;51.012;-1.648;2023-07-20T08:20:09;100774.75;;;22.43;50.43
71109;BME280;59614;51.012;-1.648;2023-07-20T08:22:37;100777.38;;;22.74;52.55
71109;BME280;59614;51.012;-1.648;2023-07-20T08:25:03;100768.84;;;22.67;49.88
71109;BME280;59614;51.012;-1.648;2023-07-20T08:27:29;100761.59;;;23.11;47.79
71109;BME280;59614;51.012;-1.648;2023-07-20T08:29:54;100763.53;;;23.23;46.64
71109;BME280;59614;51.012;-1.648;2023-07-20T08:32:20;100764.78;;;23.59;47.99
71109;BME280;59614;51.012;-1.648;2023-07-20T08:34:45;100761.81;;;23.50;46.25
71109;BME280;59614;51.012;-1.648;2023-07-20T08:37:11;100762.88;;;23.62;46.47
71109;BME280;59614;51.012;-1.648;2023-07-20T08:39:36;100760.66;;;23.81;45.55
71109;BME280;59614;51.012;-1.648;2023-07-20T08:42:02;100754.69;;;23.76;44.80
71109;BME280;59614;51.012;-1.648;2023-07-20T08:44:32;100757.09;;;23.53;43.98
71109;BME280;59614;51.012;-1.648;2023-07-20T08:47:00;100754.69;;;23.76;44.60
71109;BME280;59614;51.012;-1.648;2023-07-20T08:49:27;100750.31;;;24.15;45.34
71109;BME280;59614;51.012;-1.648;2023-07-20T08:51:53;100755.63;;;24.43;43.90
71109;BME280;59614;51.012;-1.648;2023-07-20T08:54:18;100753.69;;;23.91;43.68
71109;BME280;59614;51.012;-1.648;2023-07-20T08:56:45;100752.38;;;24.12;43.43
71109;BME280;59614;51.012;-1.648;2023-07-20T08:59:13;100749.50;;;24.54;42.98
71109;BME280;59614;51.012;-1.648;2023-07-20T09:01:41;100751.53;;;24.63;45.30
71109;BME280;59614;51.012;-1.648;2023-07-20T09:04:06;100744.53;;;24.99;44.63
71109;BME280;59614;51.012;-1.648;2023-07-20T09:06:32;100743.50;;;25.13;41.30
71109;BME280;59614;51.012;-1.648;2023-07-20T09:08:59;100739.69;;;24.78;40.49
71109;BME280;59614;51.012;-1.648;2023-07-20T09:11:24;100741.16;;;24.57;40.57
71109;BME280;59614;51.012;-1.648;2023-07-20T09:14:06;100735.47;;;24.35;40.36
71109;BME280;59614;51.012;-1.648;2023-07-20T09:16:32;100740.69;;;23.98;42.03
71109;BME280;59614;51.012;-1.648;2023-07-20T09:18:58;100741.41;;;24.54;41.11
71109;BME280;59614;51.012;-1.648;2023-07-20T09:21:23;100745.81;;;24.29;41.27
71109;BME280;59614;51.012;-1.648;2023-07-20T09:23:56;100740.13;;;23.66;41.64
71109;BME280;59614;51.012;-1.648;2023-07-20T09:26:22;100743.84;;;23.78;41.25
71109;BME280;59614;51.012;-1.648;2023-07-20T09:28:49;100734.94;;;24.82;41.85
71109;BME280;59614;51.012;-1.648;2023-07-20T09:31:19;100736.41;;;24.21;41.07
71109;BME280;59614;51.012;-1.648;2023-07-20T09:33:46;100732.72;;;24.23;41.05
71109;BME280;59614;51.012;-1.648;2023-07-20T09:36:12;100731.69;;;24.38;43.54
71109;BME280;59614;51.012;-1.648;2023-07-20T09:38:41;100734.69;;;25.48;44.53
71109;BME280;59614;51.012;-1.648;2023-07-20T09:41:07;100727.66;;;25.70;39.90
71109;BME280;59614;51.012;-1.648;2023-07-20T09:43:36;100722.06;;;25.23;40.41
71109;BME280;59614;51.012;-1.648;2023-07-20T09:46:02;100725.19;;;25.42;38.91
71109;BME280;59614;51.012;-1.648;2023-07-20T09:48:27;100729.34;;;25.95;39.25
71109;BME280;59614;51.012;-1.648;2023-07-20T09:50:53;100717.16;;;26.36;38.30
71109;BME280;59614;51.012;-1.648;2023-07-20T09:53:19;100725.25;;;25.54;37.11
71109;BME280;59614;51.012;-1.648;2023-07-20T09:55:48;100724.06;;;25.08;37.93
71109;BME280;59614;51.012;-1.648;2023-07-20T09:58:14;100715.72;;;24.22;41.35
71109;BME280;59614;51.012;-1.648;2023-07-20T10:00:41;100715.06;;;25.57;40.47
71109;BME280;59614;51.012;-1.648;2023-07-20T10:03:14;100716.22;;;25.42;38.33
71109;BME280;59614;51.012;-1.648;2023-07-20T10:05:43;100712.84;;;25.87;38.63
71109;BME280;59614;51.012;-1.648;2023-07-20T10:08:12;100719.53;;;25.46;39.94
71109;BME280;59614;51.012;-1.648;2023-07-20T10:10:41;100714.84;;;26.32;38.53
71109;BME280;59614;51.012;-1.648;2023-07-20T10:13:10;100712.91;;;26.68;40.22
71109;BME280;59614;51.012;-1.648;2023-07-20T10:15:46;100708.97;;;26.72;38.75
71109;BME280;59614;51.012;-1.648;2023-07-20T10:18:22;100715.25;;;26.03;40.47
71109;BME280;59614;51.012;-1.648;2023-07-20T10:20:54;100716.13;;;25.31;41.85
71109;BME280;59614;51.012;-1.648;2023-07-20T10:23:21;100725.31;;;26.48;42.26
71109;BME280;59614;51.012;-1.648;2023-07-20T10:25:47;100710.53;;;26.41;41.30
71109;BME280;59614;51.012;-1.648;2023-07-20T10:28:13;100705.81;;;25.84;39.09
71109;BME280;59614;51.012;-1.648;2023-07-20T10:30:39;100709.34;;;26.56;38.61
71109;BME280;59614;51.012;-1.648;2023-07-20T10:33:06;100701.28;;;27.23;41.73
71109;BME280;59614;51.012;-1.648;2023-07-20T10:38:18;100703.06;;;26.90;38.66
71109;BME280;59614;51.012;-1.648;2023-07-20T10:40:54;100709.78;;;27.29;39.44
71109;BME280;59614;51.012;-1.648;2023-07-20T10:43:19;100709.44;;;26.77;40.20
71109;BME280;59614;51.012;-1.648;2023-07-20T10:45:49;100712.88;;;25.63;36.93
71109;BME280;59614;51.012;-1.648;2023-07-20T10:48:23;100707.16;;;25.30;42.36
71109;BME280;59614;51.012;-1.648;2023-07-20T10:51:11;100706.75;;;26.55;41.24
71109;BME280;59614;51.012;-1.648;2023-07-20T10:53:38;100705.31;;;27.51;39.72
71109;BME280;59614;51.012;-1.648;2023-07-20T10:56:22;100691.06;;;28.65;38.93
71109;BME280;59614;51.012;-1.648;2023-07-20T10:58:56;100692.88;;;28.24;38.15
71109;BME280;59614;51.012;-1.648;2023-07-20T11:01:27;100690.13;;;29.26;37.46
71109;BME280;59614;51.012;-1.648;2023-07-20T11:03:58;100695.38;;;29.08;38.07
71109;BME280;59614;51.012;-1.648;2023-07-20T11:09:06;100700.22;;;26.46;39.98
71109;BME280;59614;51.012;-1.648;2023-07-20T11:11:42;100696.06;;;25.95;38.12
71109;BME280;59614;51.012;-1.648;2023-07-20T11:16:43;100696.66;;;25.01;41.33
71109;BME280;59614;51.012;-1.648;2023-07-20T11:19:25;100694.84;;;24.89;43.03
71109;BME280;59614;51.012;-1.648;2023-07-20T11:21:56;100694.47;;;24.69;46.18
71109;BME280;59614;51.012;-1.648;2023-07-20T11:24:23;100695.84;;;24.36;41.24
71109;BME280;59614;51.012;-1.648;2023-07-20T11:29:18;100686.78;;;24.76;42.57
71109;BME280;59614;51.012;-1.648;2023-07-20T11:31:45;100680.88;;;25.81;37.10
71109;BME280;59614;51.012;-1.648;2023-07-20T11:34:20;100685.22;;;26.42;39.97
71109;BME280;59614;51.012;-1.648;2023-07-20T11:36:48;100687.41;;;26.36;40.82
71109;BME280;59614;51.012;-1.648;2023-07-20T11:39:14;100686.59;;;26.00;43.34
71109;BME280;59614;51.012;-1.648;2023-07-20T11:41:50;100681.75;;;25.57;44.26
71109;BME280;59614;51.012;-1.648;2023-07-20T11:44:17;100686.41;;;25.79;44.64
71109;BME280;59614;51.012;-1.648;2023-07-20T11:46:43;100679.38;;;27.26;43.34
71109;BME280;59614;51.012;-1.648;2023-07-20T11:49:12;100666.66;;;27.26;40.90
71109;BME280;59614;51.012;-1.648;2023-07-20T11:51:39;100672.38;;;27.12;38.68
71109;BME280;59614;51.012;-1.648;2023-07-20T11:54:07;100658.16;;;26.53;37.69
71109;BME280;59614;51.012;-1.648;2023-07-20T11:56:33;100676.41;;;27.29;40.17
71109;BME280;59614;51.012;-1.648;2023-07-20T11:58:59;100664.94;;;27.90;35.10
71109;BME280;59614;51.012;-1.648;2023-07-20T12:01:27;100661.94;;;27.07;38.75
71109;BME280;59614;51.012;-1.648;2023-07-20T12:04:01;100664.53;;;26.18;36.28
71109;BME280;59614;51.012;-1.648;2023-07-20T12:06:30;100664.38;;;25.24;37.72
71109;BME280;59614;51.012;-1.648;2023-07-20T12:08:57;100667.47;;;24.43;38.93
71109;BME280;59614;51.012;-1.648;2023-07-20T12:11:37;100664.25;;;24.38;38.76
71109;BME280;59614;51.012;-1.648;2023-07-20T12:14:07;100663.00;;;24.68;38.67
71109;BME280;59614;51.012;-1.648;2023-07-20T12:16:33;100653.84;;;24.58;38.40
71109;BME280;59614;51.012;-1.648;2023-07-20T12:19:03;100650.69;;;24.90;38.96
71109;BME280;59614;51.012;-1.648;2023-07-20T12:21:30;100654.59;;;25.34;42.41
71109;BME280;59614;51.012;-1.648;2023-07-20T12:23:58;100642.47;;;27.02;40.68
71109;BME280;59614;51.012;-1.648;2023-07-20T12:26:23;100639.47;;;28.24;36.44
71109;BME280;59614;51.012;-1.648;2023-07-20T12:28:50;100637.81;;;29.34;37.39
71109;BME280;59614;51.012;-1.648;2023-07-20T12:31:16;100623.53;;;28.41;38.45
71109;BME280;59614;51.012;-1.648;2023-07-20T12:33:41;100635.44;;;27.43;35.77
71109;BME280;59614;51.012;-1.648;2023-07-20T12:36:08;100629.34;;;26.86;36.26
71109;BME280;59614;51.012;-1.648;2023-07-20T12:38:33;100630.34;;;26.40;38.53
71109;BME280;59614;51.012;-1.648;2023-07-20T12:41:01;100624.31;;;26.13;38.65
71109;BME280;59614;51.012;-1.648;2023-07-20T12:43:26;100626.63;;;26.86;37.80
71109;BME280;59614;51.012;-1.648;2023-07-20T12:45:51;100625.44;;;26.79;35.02
71109;BME280;59614;51.012;-1.648;2023-07-20T12:48:17;100621.88;;;27.22;33.17
71109;BME280;59614;51.012;-1.648;2023-07-20T12:50:42;100618.50;;;26.97;36.39
71109;BME280;59614;51.012;-1.648;2023-07-20T12:53:08;100613.56;;;26.91;39.20
71109;BME280;59614;51.012;-1.648;2023-07-20T12:55:33;100615.31;;;26.47;38.75